sensor_id;sensor_type;location;lat;lon;timestamp;P1;durP1;ratioP1;P2;durP2;ratioP2
69485;SDS011;56677;51.710;5.366;2023-07-29T00:01:54;4.37;;;2.60;;
69485;SDS011;56677;51.710;5.366;2023-07-29T00:04:19;4.20;;;2.42;;
69485;SDS011;56677;51.710;5.366;2023-07-29T00:06:45;4.20;;;2.45;;
69485;SDS011;56677;51.710;5.366;2023-07-29T00:09:10;4.43;;;2.63;;
69485;SDS011;56677;51.710;5.366;2023-07-29T00:11:35;3.90;;;2.50;;
69485;SDS011;56677;51.710;5.366;2023-07-29T00:14:00;4.47;;;2.10;;
69485;SDS011;56677;51.710;5.366;2023-07-29T00:16:26;4.93;;;2.70;;
69485;SDS011;56677;51.710;5.366;2023-07-29T00:18:51;5.30;;;2.80;;
69485;SDS011;56677;51.710;5.366;2023-07-29T00:21:16;4.50;;;2.53;;
69485;SDS011;56677;51.710;5.366;2023-07-29T00:23:41;5.43;;;2.65;;
69485;SDS011;56677;51.710;5.366;2023-07-29T00:26:06;3.97;;;2.55;;
69485;SDS011;56677;51.710;5.366;2023-07-29T00:28:32;4.57;;;2.97;;
69485;SDS011;56677;51.710;5.366;2023-07-29T00:30:57;4.20;;;2.45;;
69485;SDS011;56677;51.710;5.366;2023-07-29T00:33:22;4.63;;;2.57;;
69485;SDS011;56677;51.710;5.366;2023-07-29T00:35:47;5.03;;;2.63;;
69485;SDS011;56677;51.710;5.366;2023-07-29T00:38:12;4.85;;;2.80;;
69485;SDS011;56677;51.710;5.366;2023-07-29T00:40:37;4.78;;;2.80;;
69485;SDS011;56677;51.710;5.366;2023-07-29T00:43:02;3.67;;;2.40;;
69485;SDS011;56677;51.710;5.366;2023-07-29T00:45:28;4.00;;;2.20;;
69485;SDS011;56677;51.710;5.366;2023-07-29T00:47:54;4.88;;;2.88;;
69485;SDS011;56677;51.710;5.366;2023-07-29T00:50:19;3.83;;;2.50;;
69485;SDS011;56677;51.710;5.366;2023-07-29T00:52:44;4.17;;;2.77;;
69485;SDS011;56677;51.710;5.366;2023-07-29T00:55:09;4.63;;;2.75;;
69485;SDS011;56677;51.710;5.366;2023-07-29T00:57:35;3.97;;;2.28;;
69485;SDS011;56677;51.710;5.366;2023-07-29T01:00:00;5.18;;;2.75;;
69485;SDS011;56677;51.710;5.366;2023-07-29T01:02:26;4.90;;;2.67;;
69485;SDS011;56677;51.710;5.366;2023-07-29T01:04:52;4.00;;;2.65;;
69485;SDS011;56677;51.710;5.366;2023-07-29T01:10:04;5.15;;;2.40;;
69485;SDS011;56677;51.710;5.366;2023-07-29T01:15:24;4.40;;;2.45;;
69485;SDS011;56677;51.710;5.366;2023-07-29T01:17:52;4.40;;;2.55;;
69485;SDS011;56677;51.710;5.366;2023-07-29T01:20:19;3.40;;;2.20;;
69485;SDS011;56677;51.710;5.366;2023-07-29T01:22:44;3.80;;;2.40;;
69485;SDS011;56677;51.710;5.366;2023-07-29T01:25:09;4.20;;;2.40;;
69485;SDS011;56677;51.710;5.366;2023-07-29T01:27:34;5.18;;;2.30;;
69485;SDS011;56677;51.710;5.366;2023-07-29T01:29:59;4.90;;;2.60;;
69485;SDS011;56677;51.710;5.366;2023-07-29T01:35:00;4.43;;;2.30;;
69485;SDS011;56677;51.710;5.366;2023-07-29T01:37:28;3.10;;;2.25;;
69485;SDS011;56677;51.710;5.366;2023-07-29T01:39:56;4.50;;;2.28;;
69485;SDS011;56677;51.710;5.366;2023-07-29T01:42:21;3.47;;;2.08;;
69485;SDS011;56677;51.710;5.366;2023-07-29T01:44:46;3.40;;;2.13;;
69485;SDS011;56677;51.710;5.366;2023-07-29T01:47:12;3.93;;;2.00;;
69485;SDS011;56677;51.710;5.366;2023-07-29T01:49:37;4.50;;;2.38;;
69485;SDS011;56677;51.710;5.366;2023-07-29T01:52:02;4.22;;;2.47;;
69485;SDS011;56677;51.710;5.366;2023-07-29T01:54:27;4.27;;;2.40;;
69485;SDS011;56677;51.710;5.366;2023-07-29T01:56:52;3.87;;;2.50;;
69485;SDS011;56677;51.710;5.366;2023-07-29T01:59:17;5.67;;;2.53;;
69485;SDS011;56677;51.710;5.366;2023-07-29T02:01:43;4.15;;;2.38;;
69485;SDS011;56677;51.710;5.366;2023-07-29T02:04:08;4.55;;;2.55;;
69485;SDS011;56677;51.710;5.366;2023-07-29T02:06:33;4.47;;;2.73;;
69485;SDS011;56677;51.710;5.366;2023-07-29T02:08:58;4.65;;;2.38;;
69485;SDS011;56677;51.710;5.366;2023-07-29T02:11:23;4.07;;;2.05;;
69485;SDS011;56677;51.710;5.366;2023-07-29T02:13:48;4.57;;;2.20;;
69485;SDS011;56677;51.710;5.366;2023-07-29T02:16:13;3.40;;;2.10;;
69485;SDS011;56677;51.710;5.366;2023-07-29T02:18:38;4.63;;;2.50;;
69485;SDS011;56677;51.710;5.366;2023-07-29T02:21:04;4.55;;;2.00;;
69485;SDS011;56677;51.710;5.366;2023-07-29T02:23:29;4.88;;;2.08;;
69485;SDS011;56677;51.710;5.366;2023-07-29T02:25:54;4.72;;;2.40;;
69485;SDS011;56677;51.710;5.366;2023-07-29T02:28:19;3.20;;;2.30;;
69485;SDS011;56677;51.710;5.366;2023-07-29T02:30:44;3.72;;;2.03;;
69485;SDS011;56677;51.710;5.366;2023-07-29T02:33:09;3.80;;;2.22;;
69485;SDS011;56677;51.710;5.366;2023-07-29T02:35:34;4.07;;;2.22;;
69485;SDS011;56677;51.710;5.366;2023-07-29T02:38:00;3.90;;;2.40;;
69485;SDS011;56677;51.710;5.366;2023-07-29T02:40:25;5.72;;;2.33;;
69485;SDS011;56677;51.710;5.366;2023-07-29T02:42:50;4.55;;;2.00;;
69485;SDS011;56677;51.710;5.366;2023-07-29T02:45:15;3.05;;;1.80;;
69485;SDS011;56677;51.710;5.366;2023-07-29T02:47:40;4.30;;;2.25;;
69485;SDS011;56677;51.710;5.366;2023-07-29T02:50:05;3.88;;;2.17;;
69485;SDS011;56677;51.710;5.366;2023-07-29T02:52:30;3.30;;;2.07;;
69485;SDS011;56677;51.710;5.366;2023-07-29T02:54:56;6.13;;;2.13;;
69485;SDS011;56677;51.710;5.366;2023-07-29T02:57:21;3.35;;;1.77;;
69485;SDS011;56677;51.710;5.366;2023-07-29T02:59:46;3.38;;;1.70;;
69485;SDS011;56677;51.710;5.366;2023-07-29T03:02:11;4.20;;;1.93;;
69485;SDS011;56677;51.710;5.366;2023-07-29T03:04:36;3.17;;;1.85;;
69485;SDS011;56677;51.710;5.366;2023-07-29T03:07:01;2.80;;;1.88;;
69485;SDS011;56677;51.710;5.366;2023-07-29T03:09:26;3.42;;;1.98;;
69485;SDS011;56677;51.710;5.366;2023-07-29T03:11:51;3.40;;;2.00;;
69485;SDS011;56677;51.710;5.366;2023-07-29T03:14:17;3.25;;;1.70;;
69485;SDS011;56677;51.710;5.366;2023-07-29T03:16:42;3.65;;;2.40;;
69485;SDS011;56677;51.710;5.366;2023-07-29T03:19:07;3.60;;;1.90;;
69485;SDS011;56677;51.710;5.366;2023-07-29T03:21:32;4.70;;;1.90;;
69485;SDS011;56677;51.710;5.366;2023-07-29T03:23:57;2.80;;;1.88;;
69485;SDS011;56677;51.710;5.366;2023-07-29T03:26:22;4.28;;;2.17;;
69485;SDS011;56677;51.710;5.366;2023-07-29T03:28:47;3.30;;;2.30;;
69485;SDS011;56677;51.710;5.366;2023-07-29T03:31:12;3.67;;;1.80;;
69485;SDS011;56677;51.710;5.366;2023-07-29T05:09:12;4.32;;;1.40;;
69485;SDS011;56677;51.710;5.366;2023-07-29T05:11:37;6.00;;;2.08;;
69485;SDS011;56677;51.710;5.366;2023-07-29T05:14:03;3.15;;;1.85;;
69485;SDS011;56677;51.710;5.366;2023-07-29T05:16:28;3.53;;;1.90;;
69485;SDS011;56677;51.710;5.366;2023-07-29T05:18:53;3.53;;;1.50;;
69485;SDS011;56677;51.710;5.366;2023-07-29T05:21:19;5.10;;;1.70;;
69485;SDS011;56677;51.710;5.366;2023-07-29T05:23:44;8.23;;;1.85;;
69485;SDS011;56677;51.710;5.366;2023-07-29T05:26:09;5.10;;;1.60;;
69485;SDS011;56677;51.710;5.366;2023-07-29T05:28:34;3.00;;;1.67;;
69485;SDS011;56677;51.710;5.366;2023-07-29T05:31:00;4.43;;;1.75;;
69485;SDS011;56677;51.710;5.366;2023-07-29T05:33:25;4.60;;;1.75;;
69485;SDS011;56677;51.710;5.366;2023-07-29T05:35:51;3.75;;;1.90;;
69485;SDS011;56677;51.710;5.366;2023-07-29T05:38:16;3.70;;;1.55;;
69485;SDS011;56677;51.710;5.366;2023-07-29T05:40:41;2.93;;;1.70;;
69485;SDS011;56677;51.710;5.366;2023-07-29T05:43:06;4.25;;;2.17;;
69485;SDS011;56677;51.710;5.366;2023-07-29T05:45:31;5.63;;;1.90;;
69485;SDS011;56677;51.710;5.366;2023-07-29T05:47:56;3.22;;;1.67;;
69485;SDS011;56677;51.710;5.366;2023-07-29T05:50:21;5.00;;;2.10;;
69485;SDS011;56677;51.710;5.366;2023-07-29T05:52:46;3.83;;;1.77;;
69485;SDS011;56677;51.710;5.366;2023-07-29T05:55:12;5.10;;;1.63;;
69485;SDS011;56677;51.710;5.366;2023-07-29T05:57:37;4.87;;;1.90;;
69485;SDS011;56677;51.710;5.366;2023-07-29T06:00:02;4.03;;;2.10;;
69485;SDS011;56677;51.710;5.366;2023-07-29T06:02:27;4.17;;;1.70;;
69485;SDS011;56677;51.710;5.366;2023-07-29T06:04:52;4.15;;;1.92;;
69485;SDS011;56677;51.710;5.366;2023-07-29T06:07:17;4.03;;;1.88;;
69485;SDS011;56677;51.710;5.366;2023-07-29T06:09:42;7.13;;;1.90;;
69485;SDS011;56677;51.710;5.366;2023-07-29T06:12:08;4.80;;;1.73;;
69485;SDS011;56677;51.710;5.366;2023-07-29T06:14:33;6.63;;;1.87;;
69485;SDS011;56677;51.710;5.366;2023-07-29T06:16:58;6.55;;;1.73;;
69485;SDS011;56677;51.710;5.366;2023-07-29T06:19:23;4.60;;;1.30;;
69485;SDS011;56677;51.710;5.366;2023-07-29T06:21:48;5.97;;;1.90;;
69485;SDS011;56677;51.710;5.366;2023-07-29T06:24:13;4.27;;;1.83;;
69485;SDS011;56677;51.710;5.366;2023-07-29T06:26:39;5.68;;;2.10;;
69485;SDS011;56677;51.710;5.366;2023-07-29T06:29:04;3.53;;;1.70;;
69485;SDS011;56677;51.710;5.366;2023-07-29T06:31:29;2.70;;;1.67;;
69485;SDS011;56677;51.710;5.366;2023-07-29T06:33:54;5.75;;;2.00;;
69485;SDS011;56677;51.710;5.366;2023-07-29T06:36:19;3.27;;;1.70;;
69485;SDS011;56677;51.710;5.366;2023-07-29T06:38:44;3.60;;;1.80;;
69485;SDS011;56677;51.710;5.366;2023-07-29T06:41:09;3.97;;;2.38;;
69485;SDS011;56677;51.710;5.366;2023-07-29T06:43:35;3.17;;;1.52;;
69485;SDS011;56677;51.710;5.366;2023-07-29T06:46:00;4.55;;;1.83;;
69485;SDS011;56677;51.710;5.366;2023-07-29T06:48:25;4.07;;;2.23;;
69485;SDS011;56677;51.710;5.366;2023-07-29T06:50:50;3.10;;;1.80;;
69485;SDS011;56677;51.710;5.366;2023-07-29T06:53:15;4.45;;;1.65;;
69485;SDS011;56677;51.710;5.366;2023-07-29T06:55:40;4.07;;;1.77;;
69485;SDS011;56677;51.710;5.366;2023-07-29T06:58:05;4.97;;;1.70;;
69485;SDS011;56677;51.710;5.366;2023-07-29T07:00:31;4.13;;;1.80;;
69485;SDS011;56677;51.710;5.366;2023-07-29T07:02:56;5.50;;;1.92;;
69485;SDS011;56677;51.710;5.366;2023-07-29T07:05:21;6.53;;;2.20;;
69485;SDS011;56677;51.710;5.366;2023-07-29T07:07:46;10.18;;;1.70;;
69485;SDS011;56677;51.710;5.366;2023-07-29T07:10:11;5.53;;;2.03;;
69485;SDS011;56677;51.710;5.366;2023-07-29T07:12:36;4.03;;;1.73;;
69485;SDS011;56677;51.710;5.366;2023-07-29T07:15:01;6.85;;;1.90;;
69485;SDS011;56677;51.710;5.366;2023-07-29T07:17:27;5.87;;;1.83;;
69485;SDS011;56677;51.710;5.366;2023-07-29T07:19:52;5.10;;;2.00;;
69485;SDS011;56677;51.710;5.366;2023-07-29T07:22:17;4.80;;;1.85;;
69485;SDS011;56677;51.710;5.366;2023-07-29T07:24:42;3.90;;;1.80;;
69485;SDS011;56677;51.710;5.366;2023-07-29T07:27:07;5.07;;;1.90;;
69485;SDS011;56677;51.710;5.366;2023-07-29T07:29:32;6.87;;;1.80;;
69485;SDS011;56677;51.710;5.366;2023-07-29T07:31:58;2.90;;;1.70;;
69485;SDS011;56677;51.710;5.366;2023-07-29T07:34:23;6.77;;;1.83;;
69485;SDS011;56677;51.710;5.366;2023-07-29T07:36:49;5.50;;;2.60;;
69485;SDS011;56677;51.710;5.366;2023-07-29T07:39:14;3.90;;;2.07;;
69485;SDS011;56677;51.710;5.366;2023-07-29T07:41:40;4.57;;;1.90;;
69485;SDS011;56677;51.710;5.366;2023-07-29T07:44:05;4.00;;;1.95;;
69485;SDS011;56677;51.710;5.366;2023-07-29T07:46:30;4.13;;;1.90;;
69485;SDS011;56677;51.710;5.366;2023-07-29T07:48:55;6.22;;;2.55;;
69485;SDS011;56677;51.710;5.366;2023-07-29T07:51:20;4.67;;;2.00;;
69485;SDS011;56677;51.710;5.366;2023-07-29T07:53:45;4.20;;;1.92;;
69485;SDS011;56677;51.710;5.366;2023-07-29T07:56:10;5.55;;;2.55;;
69485;SDS011;56677;51.710;5.366;2023-07-29T07:58:36;5.53;;;2.10;;
69485;SDS011;56677;51.710;5.366;2023-07-29T08:01:05;3.80;;;1.80;;
69485;SDS011;56677;51.710;5.366;2023-07-29T08:03:31;4.68;;;2.10;;
69485;SDS011;56677;51.710;5.366;2023-07-29T08:05:56;3.33;;;1.90;;
69485;SDS011;56677;51.710;5.366;2023-07-29T08:08:21;4.33;;;2.00;;
69485;SDS011;56677;51.710;5.366;2023-07-29T08:10:46;4.87;;;2.03;;
69485;SDS011;56677;51.710;5.366;2023-07-29T08:13:12;5.40;;;2.50;;
69485;SDS011;56677;51.710;5.366;2023-07-29T08:15:37;3.40;;;2.03;;
69485;SDS011;56677;51.710;5.366;2023-07-29T08:18:02;6.32;;;2.50;;
69485;SDS011;56677;51.710;5.366;2023-07-29T08:20:27;5.53;;;2.53;;
69485;SDS011;56677;51.710;5.366;2023-07-29T08:22:52;3.85;;;2.17;;
69485;SDS011;56677;51.710;5.366;2023-07-29T08:25:17;4.00;;;2.30;;
69485;SDS011;56677;51.710;5.366;2023-07-29T08:27:42;4.40;;;2.47;;
69485;SDS011;56677;51.710;5.366;2023-07-29T08:30:08;3.80;;;2.50;;
69485;SDS011;56677;51.710;5.366;2023-07-29T08:32:33;4.25;;;2.53;;
69485;SDS011;56677;51.710;5.366;2023-07-29T08:34:58;5.03;;;2.35;;
69485;SDS011;56677;51.710;5.366;2023-07-29T08:37:23;5.90;;;2.60;;
69485;SDS011;56677;51.710;5.366;2023-07-29T08:39:48;5.32;;;2.58;;
69485;SDS011;56677;51.710;5.366;2023-07-29T08:42:13;4.32;;;2.65;;
69485;SDS011;56677;51.710;5.366;2023-07-29T08:44:43;4.97;;;3.28;;
69485;SDS011;56677;51.710;5.366;2023-07-29T08:47:08;5.07;;;2.88;;
69485;SDS011;56677;51.710;5.366;2023-07-29T08:49:33;5.13;;;3.00;;
69485;SDS011;56677;51.710;5.366;2023-07-29T08:51:59;5.20;;;2.80;;
69485;SDS011;56677;51.710;5.366;2023-07-29T08:54:24;4.47;;;2.97;;
69485;SDS011;56677;51.710;5.366;2023-07-29T08:56:49;7.43;;;3.00;;
69485;SDS011;56677;51.710;5.366;2023-07-29T08:59:15;4.53;;;2.47;;
69485;SDS011;56677;51.710;5.366;2023-07-29T09:01:41;4.00;;;2.63;;
69485;SDS011;56677;51.710;5.366;2023-07-29T09:04:06;6.68;;;2.70;;
69485;SDS011;56677;51.710;5.366;2023-07-29T09:06:31;5.53;;;2.70;;
69485;SDS011;56677;51.710;5.366;2023-07-29T09:08:57;4.53;;;2.80;;
69485;SDS011;56677;51.710;5.366;2023-07-29T09:11:23;4.20;;;2.50;;
69485;SDS011;56677;51.710;5.366;2023-07-29T09:13:48;4.50;;;2.70;;
69485;SDS011;56677;51.710;5.366;2023-07-29T09:16:13;4.60;;;2.38;;
69485;SDS011;56677;51.710;5.366;2023-07-29T09:18:38;3.55;;;2.40;;
69485;SDS011;56677;51.710;5.366;2023-07-29T09:21:04;3.97;;;2.13;;
69485;SDS011;56677;51.710;5.366;2023-07-29T09:23:38;4.57;;;2.50;;
69485;SDS011;56677;51.710;5.366;2023-07-29T09:26:03;3.83;;;2.22;;
69485;SDS011;56677;51.710;5.366;2023-07-29T09:28:31;5.03;;;2.10;;
69485;SDS011;56677;51.710;5.366;2023-07-29T09:30:57;4.10;;;1.70;;
69485;SDS011;56677;51.710;5.366;2023-07-29T09:33:25;3.95;;;1.85;;
69485;SDS011;56677;51.710;5.366;2023-07-29T09:35:50;3.80;;;2.00;;
69485;SDS011;56677;51.710;5.366;2023-07-29T09:38:16;4.35;;;2.88;;
69485;SDS011;56677;51.710;5.366;2023-07-29T09:40:41;6.72;;;3.95;;
69485;SDS011;56677;51.710;5.366;2023-07-29T09:43:10;6.53;;;5.43;;
69485;SDS011;56677;51.710;5.366;2023-07-29T09:45:35;7.07;;;5.60;;
69485;SDS011;56677;51.710;5.366;2023-07-29T09:48:01;16.15;;;10.35;;
69485;SDS011;56677;51.710;5.366;2023-07-29T09:50:26;16.30;;;10.83;;
69485;SDS011;56677;51.710;5.366;2023-07-29T09:52:52;14.40;;;8.07;;
69485;SDS011;56677;51.710;5.366;2023-07-29T09:55:18;11.75;;;6.47;;
69485;SDS011;56677;51.710;5.366;2023-07-29T09:57:43;8.10;;;5.03;;
69485;SDS011;56677;51.710;5.366;2023-07-29T10:00:10;10.15;;;5.25;;
69485;SDS011;56677;51.710;5.366;2023-07-29T10:02:36;11.27;;;5.63;;
69485;SDS011;56677;51.710;5.366;2023-07-29T10:05:02;10.80;;;5.57;;
69485;SDS011;56677;51.710;5.366;2023-07-29T10:07:27;19.43;;;9.50;;
69485;SDS011;56677;51.710;5.366;2023-07-29T10:09:52;31.97;;;14.97;;
69485;SDS011;56677;51.710;5.366;2023-07-29T10:12:18;28.58;;;12.98;;
69485;SDS011;56677;51.710;5.366;2023-07-29T10:14:44;18.33;;;8.50;;
69485;SDS011;56677;51.710;5.366;2023-07-29T10:17:11;14.23;;;6.47;;
69485;SDS011;56677;51.710;5.366;2023-07-29T10:19:36;14.10;;;7.10;;
69485;SDS011;56677;51.710;5.366;2023-07-29T10:22:01;13.37;;;6.53;;
69485;SDS011;56677;51.710;5.366;2023-07-29T10:24:30;16.30;;;7.65;;
69485;SDS011;56677;51.710;5.366;2023-07-29T10:26:57;16.50;;;8.63;;
69485;SDS011;56677;51.710;5.366;2023-07-29T10:29:22;14.70;;;7.03;;
69485;SDS011;56677;51.710;5.366;2023-07-29T10:31:48;15.82;;;6.90;;
69485;SDS011;56677;51.710;5.366;2023-07-29T10:34:13;13.47;;;6.40;;
69485;SDS011;56677;51.710;5.366;2023-07-29T10:36:39;19.30;;;12.07;;
69485;SDS011;56677;51.710;5.366;2023-07-29T10:39:06;22.77;;;14.03;;
69485;SDS011;56677;51.710;5.366;2023-07-29T10:46:59;19.33;;;9.45;;
69485;SDS011;56677;51.710;5.366;2023-07-29T10:49:24;15.90;;;7.47;;
69485;SDS011;56677;51.710;5.366;2023-07-29T10:51:49;16.00;;;8.17;;
69485;SDS011;56677;51.710;5.366;2023-07-29T10:54:14;17.50;;;7.95;;
69485;SDS011;56677;51.710;5.366;2023-07-29T10:56:40;23.00;;;10.77;;
69485;SDS011;56677;51.710;5.366;2023-07-29T11:01:38;25.20;;;11.00;;
69485;SDS011;56677;51.710;5.366;2023-07-29T11:04:22;19.27;;;9.07;;
69485;SDS011;56677;51.710;5.366;2023-07-29T11:09:40;25.17;;;11.07;;
69485;SDS011;56677;51.710;5.366;2023-07-29T11:12:32;21.52;;;10.88;;
69485;SDS011;56677;51.710;5.366;2023-07-29T11:14:51;22.47;;;10.33;;
69485;SDS011;56677;51.710;5.366;2023-07-29T11:17:16;20.20;;;10.17;;
69485;SDS011;56677;51.710;5.366;2023-07-29T11:19:41;21.57;;;9.87;;
69485;SDS011;56677;51.710;5.366;2023-07-29T11:22:06;19.87;;;9.83;;
69485;SDS011;56677;51.710;5.366;2023-07-29T11:24:31;17.70;;;8.90;;
69485;SDS011;56677;51.710;5.366;2023-07-29T11:26:56;16.47;;;7.93;;
69485;SDS011;56677;51.710;5.366;2023-07-29T11:29:22;15.52;;;6.88;;
69485;SDS011;56677;51.710;5.366;2023-07-29T11:31:47;14.10;;;6.78;;
69485;SDS011;56677;51.710;5.366;2023-07-29T11:34:12;12.80;;;6.30;;
69485;SDS011;56677;51.710;5.366;2023-07-29T11:36:37;12.73;;;6.27;;
69485;SDS011;56677;51.710;5.366;2023-07-29T11:39:08;14.00;;;6.00;;
69485;SDS011;56677;51.710;5.366;2023-07-29T11:41:34;15.32;;;7.53;;
69485;SDS011;56677;51.710;5.366;2023-07-29T11:43:59;15.85;;;7.45;;
69485;SDS011;56677;51.710;5.366;2023-07-29T11:46:24;16.55;;;7.05;;
69485;SDS011;56677;51.710;5.366;2023-07-29T11:48:49;16.13;;;8.80;;
69485;SDS011;56677;51.710;5.366;2023-07-29T11:51:14;16.10;;;9.23;;
69485;SDS011;56677;51.710;5.366;2023-07-29T11:53:40;17.75;;;11.05;;
69485;SDS011;56677;51.710;5.366;2023-07-29T11:56:06;23.38;;;13.00;;
69485;SDS011;56677;51.710;5.366;2023-07-29T11:58:31;18.27;;;11.93;;
69485;SDS011;56677;51.710;5.366;2023-07-29T12:00:57;18.45;;;11.15;;
69485;SDS011;56677;51.710;5.366;2023-07-29T12:03:22;16.98;;;10.30;;
69485;SDS011;56677;51.710;5.366;2023-07-29T12:05:47;19.52;;;10.30;;
69485;SDS011;56677;51.710;5.366;2023-07-29T12:08:13;17.60;;;10.67;;
69485;SDS011;56677;51.710;5.366;2023-07-29T12:10:38;18.67;;;10.57;;
69485;SDS011;56677;51.710;5.366;2023-07-29T12:13:03;17.73;;;10.27;;
69485;SDS011;56677;51.710;5.366;2023-07-29T12:15:29;17.58;;;10.18;;
69485;SDS011;56677;51.710;5.366;2023-07-29T12:17:55;17.13;;;10.67;;
69485;SDS011;56677;51.710;5.366;2023-07-29T12:20:20;18.57;;;9.53;;
69485;SDS011;56677;51.710;5.366;2023-07-29T12:22:45;18.23;;;9.77;;
69485;SDS011;56677;51.710;5.366;2023-07-29T12:25:16;15.23;;;8.98;;
69485;SDS011;56677;51.710;5.366;2023-07-29T12:27:42;15.52;;;9.50;;
69485;SDS011;56677;51.710;5.366;2023-07-29T12:30:08;17.08;;;9.45;;
69485;SDS011;56677;51.710;5.366;2023-07-29T12:32:42;18.63;;;9.60;;
69485;SDS011;56677;51.710;5.366;2023-07-29T12:35:09;16.55;;;9.52;;
69485;SDS011;56677;51.710;5.366;2023-07-29T12:37:34;17.33;;;8.45;;
69485;SDS011;56677;51.710;5.366;2023-07-29T12:39:59;15.70;;;7.97;;
69485;SDS011;56677;51.710;5.366;2023-07-29T12:42:25;16.43;;;8.67;;
69485;SDS011;56677;51.710;5.366;2023-07-29T12:44:50;14.07;;;8.43;;
69485;SDS011;56677;51.710;5.366;2023-07-29T12:47:16;14.38;;;8.23;;
69485;SDS011;56677;51.710;5.366;2023-07-29T12:49:42;14.93;;;8.23;;
69485;SDS011;56677;51.710;5.366;2023-07-29T12:52:07;12.82;;;7.15;;
69485;SDS011;56677;51.710;5.366;2023-07-29T12:54:33;13.77;;;6.50;;
69485;SDS011;56677;51.710;5.366;2023-07-29T12:56:58;12.60;;;6.85;;
69485;SDS011;56677;51.710;5.366;2023-07-29T12:59:23;11.77;;;7.03;;
69485;SDS011;56677;51.710;5.366;2023-07-29T13:01:48;12.20;;;7.30;;
69485;SDS011;56677;51.710;5.366;2023-07-29T13:04:13;11.80;;;7.13;;
69485;SDS011;56677;51.710;5.366;2023-07-29T13:06:38;12.80;;;7.20;;
69485;SDS011;56677;51.710;5.366;2023-07-29T13:09:03;10.65;;;6.18;;
69485;SDS011;56677;51.710;5.366;2023-07-29T13:11:29;10.57;;;6.57;;
69485;SDS011;56677;51.710;5.366;2023-07-29T13:13:54;11.55;;;5.95;;
69485;SDS011;56677;51.710;5.366;2023-07-29T13:16:20;12.73;;;6.30;;
69485;SDS011;56677;51.710;5.366;2023-07-29T13:18:45;12.63;;;6.40;;
69485;SDS011;56677;51.710;5.366;2023-07-29T13:21:10;8.50;;;4.50;;
69485;SDS011;56677;51.710;5.366;2023-07-29T13:23:36;6.10;;;3.60;;
69485;SDS011;56677;51.710;5.366;2023-07-29T13:26:01;7.75;;;4.25;;
69485;SDS011;56677;51.710;5.366;2023-07-29T13:28:26;6.10;;;3.13;;
69485;SDS011;56677;51.710;5.366;2023-07-29T13:30:51;5.70;;;2.88;;
69485;SDS011;56677;51.710;5.366;2023-07-29T13:33:16;6.22;;;2.65;;
69485;SDS011;56677;51.710;5.366;2023-07-29T13:35:42;5.07;;;2.80;;
69485;SDS011;56677;51.710;5.366;2023-07-29T13:38:07;4.27;;;3.03;;
69485;SDS011;56677;51.710;5.366;2023-07-29T13:40:32;5.70;;;2.42;;
69485;SDS011;56677;51.710;5.366;2023-07-29T13:42:57;8.77;;;2.50;;
69485;SDS011;56677;51.710;5.366;2023-07-29T13:45:23;4.27;;;2.40;;
69485;SDS011;56677;51.710;5.366;2023-07-29T13:47:51;4.57;;;2.27;;
69485;SDS011;56677;51.710;5.366;2023-07-29T13:50:16;4.50;;;2.20;;
69485;SDS011;56677;51.710;5.366;2023-07-29T13:52:41;4.20;;;2.17;;
69485;SDS011;56677;51.710;5.366;2023-07-29T13:55:08;7.37;;;3.23;;
69485;SDS011;56677;51.710;5.366;2023-07-29T13:57:33;7.70;;;4.07;;
69485;SDS011;56677;51.710;5.366;2023-07-29T13:59:58;10.43;;;5.87;;
69485;SDS011;56677;51.710;5.366;2023-07-29T14:02:23;13.13;;;6.70;;
69485;SDS011;56677;51.710;5.366;2023-07-29T14:04:48;11.32;;;6.65;;
69485;SDS011;56677;51.710;5.366;2023-07-29T14:07:13;10.43;;;7.40;;
69485;SDS011;56677;51.710;5.366;2023-07-29T14:09:39;7.85;;;5.35;;
69485;SDS011;56677;51.710;5.366;2023-07-29T14:12:04;7.13;;;4.78;;
69485;SDS011;56677;51.710;5.366;2023-07-29T14:14:30;6.40;;;4.38;;
69485;SDS011;56677;51.710;5.366;2023-07-29T14:16:55;6.67;;;3.83;;
69485;SDS011;56677;51.710;5.366;2023-07-29T14:19:21;7.33;;;3.40;;
69485;SDS011;56677;51.710;5.366;2023-07-29T14:21:47;5.10;;;3.47;;
69485;SDS011;56677;51.710;5.366;2023-07-29T14:24:12;4.93;;;3.33;;
69485;SDS011;56677;51.710;5.366;2023-07-29T14:26:37;7.32;;;3.33;;
69485;SDS011;56677;51.710;5.366;2023-07-29T14:29:02;6.47;;;3.00;;
69485;SDS011;56677;51.710;5.366;2023-07-29T14:31:27;5.10;;;2.90;;
69485;SDS011;56677;51.710;5.366;2023-07-29T14:33:52;6.45;;;2.92;;
69485;SDS011;56677;51.710;5.366;2023-07-29T14:36:18;4.57;;;2.47;;
69485;SDS011;56677;51.710;5.366;2023-07-29T14:38:43;4.57;;;3.13;;
69485;SDS011;56677;51.710;5.366;2023-07-29T14:41:08;4.32;;;2.58;;
69485;SDS011;56677;51.710;5.366;2023-07-29T14:43:33;5.20;;;2.30;;
69485;SDS011;56677;51.710;5.366;2023-07-29T14:45:59;5.30;;;2.57;;
69485;SDS011;56677;51.710;5.366;2023-07-29T14:48:24;8.30;;;4.73;;
69485;SDS011;56677;51.710;5.366;2023-07-29T14:50:49;8.55;;;4.40;;
69485;SDS011;56677;51.710;5.366;2023-07-29T14:53:14;9.82;;;3.97;;
69485;SDS011;56677;51.710;5.366;2023-07-29T14:55:39;6.00;;;3.40;;
69485;SDS011;56677;51.710;5.366;2023-07-29T14:58:04;9.40;;;4.07;;
69485;SDS011;56677;51.710;5.366;2023-07-29T15:00:29;7.30;;;3.65;;
69485;SDS011;56677;51.710;5.366;2023-07-29T15:02:55;6.00;;;4.63;;
69485;SDS011;56677;51.710;5.366;2023-07-29T15:05:20;7.23;;;5.50;;
69485;SDS011;56677;51.710;5.366;2023-07-29T15:07:45;8.70;;;6.90;;
69485;SDS011;56677;51.710;5.366;2023-07-29T15:10:14;7.50;;;6.27;;
69485;SDS011;56677;51.710;5.366;2023-07-29T15:12:39;7.63;;;5.57;;
69485;SDS011;56677;51.710;5.366;2023-07-29T15:15:04;12.95;;;7.38;;
69485;SDS011;56677;51.710;5.366;2023-07-29T15:17:30;15.67;;;9.00;;
69485;SDS011;56677;51.710;5.366;2023-07-29T15:19:55;22.20;;;11.40;;
69485;SDS011;56677;51.710;5.366;2023-07-29T15:22:20;24.10;;;14.20;;
69485;SDS011;56677;51.710;5.366;2023-07-29T15:24:45;23.27;;;14.65;;
69485;SDS011;56677;51.710;5.366;2023-07-29T15:27:10;24.58;;;13.98;;
69485;SDS011;56677;51.710;5.366;2023-07-29T15:29:35;25.27;;;15.93;;
69485;SDS011;56677;51.710;5.366;2023-07-29T15:32:00;31.20;;;18.10;;
69485;SDS011;56677;51.710;5.366;2023-07-29T15:34:26;40.35;;;24.08;;
69485;SDS011;56677;51.710;5.366;2023-07-29T15:36:51;28.48;;;17.27;;
69485;SDS011;56677;51.710;5.366;2023-07-29T15:39:16;22.50;;;15.32;;
69485;SDS011;56677;51.710;5.366;2023-07-29T15:41:41;21.73;;;14.37;;
69485;SDS011;56677;51.710;5.366;2023-07-29T15:44:06;19.67;;;12.17;;
69485;SDS011;56677;51.710;5.366;2023-07-29T15:46:31;16.47;;;10.80;;
69485;SDS011;56677;51.710;5.366;2023-07-29T15:48:57;16.47;;;10.33;;
69485;SDS011;56677;51.710;5.366;2023-07-29T15:51:22;17.77;;;11.35;;
69485;SDS011;56677;51.710;5.366;2023-07-29T15:53:47;20.40;;;10.93;;
69485;SDS011;56677;51.710;5.366;2023-07-29T15:56:12;20.35;;;12.02;;
69485;SDS011;56677;51.710;5.366;2023-07-29T15:58:37;20.00;;;10.43;;
69485;SDS011;56677;51.710;5.366;2023-07-29T16:01:02;18.40;;;11.53;;
69485;SDS011;56677;51.710;5.366;2023-07-29T16:03:28;17.77;;;11.40;;
69485;SDS011;56677;51.710;5.366;2023-07-29T16:05:53;17.00;;;11.07;;
69485;SDS011;56677;51.710;5.366;2023-07-29T16:08:18;19.53;;;10.53;;
69485;SDS011;56677;51.710;5.366;2023-07-29T16:10:43;19.63;;;10.80;;
69485;SDS011;56677;51.710;5.366;2023-07-29T16:13:08;16.15;;;10.30;;
69485;SDS011;56677;51.710;5.366;2023-07-29T16:15:33;17.83;;;10.32;;
69485;SDS011;56677;51.710;5.366;2023-07-29T16:17:58;19.25;;;9.57;;
69485;SDS011;56677;51.710;5.366;2023-07-29T16:20:24;14.63;;;8.20;;
69485;SDS011;56677;51.710;5.366;2023-07-29T16:22:49;10.38;;;6.28;;
69485;SDS011;56677;51.710;5.366;2023-07-29T16:25:14;12.27;;;4.90;;